sensor_id;sensor_type;location;lat;lon;timestamp;P1;durP1;ratioP1;P2;durP2;ratioP2
870;SDS011;422;51.280;7.236;2022-12-16T00:01:07;37.97;;;24.77;;
870;SDS011;422;51.280;7.236;2022-12-16T00:03:35;44.00;;;26.50;;
870;SDS011;422;51.280;7.236;2022-12-16T00:06:03;43.40;;;27.40;;
870;SDS011;422;51.280;7.236;2022-12-16T00:08:31;43.60;;;28.20;;
870;SDS011;422;51.280;7.236;2022-12-16T00:10:59;39.67;;;25.80;;
870;SDS011;422;51.280;7.236;2022-12-16T00:13:28;49.50;;;27.77;;
870;SDS011;422;51.280;7.236;2022-12-16T00:15:56;38.17;;;25.60;;
870;SDS011;422;51.280;7.236;2022-12-16T00:18:25;39.73;;;26.23;;
870;SDS011;422;51.280;7.236;2022-12-16T00:20:53;41.50;;;25.80;;
870;SDS011;422;51.280;7.236;2022-12-16T00:23:20;36.33;;;23.80;;
870;SDS011;422;51.280;7.236;2022-12-16T00:25:48;38.60;;;26.00;;
870;SDS011;422;51.280;7.236;2022-12-16T00:28:16;44.07;;;26.60;;
870;SDS011;422;51.280;7.236;2022-12-16T00:30:47;39.10;;;25.23;;
870;SDS011;422;51.280;7.236;2022-12-16T00:33:16;40.70;;;25.10;;
870;SDS011;422;51.280;7.236;2022-12-16T00:35:45;39.50;;;25.00;;
870;SDS011;422;51.280;7.236;2022-12-16T00:38:13;41.57;;;26.60;;
870;SDS011;422;51.280;7.236;2022-12-16T00:40:41;40.70;;;26.73;;
870;SDS011;422;51.280;7.236;2022-12-16T00:43:08;46.17;;;27.60;;
870;SDS011;422;51.280;7.236;2022-12-16T00:45:36;44.07;;;28.50;;
870;SDS011;422;51.280;7.236;2022-12-16T00:48:03;45.63;;;28.43;;
870;SDS011;422;51.280;7.236;2022-12-16T00:50:31;44.70;;;27.40;;
870;SDS011;422;51.280;7.236;2022-12-16T00:53:00;41.33;;;27.93;;
870;SDS011;422;51.280;7.236;2022-12-16T00:55:27;47.87;;;29.00;;
870;SDS011;422;51.280;7.236;2022-12-16T00:57:54;49.10;;;28.00;;
870;SDS011;422;51.280;7.236;2022-12-16T01:00:22;40.43;;;26.10;;
870;SDS011;422;51.280;7.236;2022-12-16T01:02:49;41.73;;;28.43;;
870;SDS011;422;51.280;7.236;2022-12-16T01:05:19;46.87;;;27.93;;
870;SDS011;422;51.280;7.236;2022-12-16T01:07:50;43.27;;;28.47;;
870;SDS011;422;51.280;7.236;2022-12-16T01:10:19;42.43;;;26.53;;
870;SDS011;422;51.280;7.236;2022-12-16T01:12:47;41.63;;;25.70;;
870;SDS011;422;51.280;7.236;2022-12-16T01:15:14;39.23;;;24.07;;
870;SDS011;422;51.280;7.236;2022-12-16T01:17:42;41.83;;;23.50;;
870;SDS011;422;51.280;7.236;2022-12-16T01:20:10;35.47;;;22.60;;
870;SDS011;422;51.280;7.236;2022-12-16T01:22:38;38.80;;;22.40;;
870;SDS011;422;51.280;7.236;2022-12-16T01:25:06;41.90;;;24.03;;
870;SDS011;422;51.280;7.236;2022-12-16T01:27:36;32.53;;;22.20;;
870;SDS011;422;51.280;7.236;2022-12-16T01:30:04;38.17;;;22.80;;
870;SDS011;422;51.280;7.236;2022-12-16T01:32:33;39.40;;;24.23;;
870;SDS011;422;51.280;7.236;2022-12-16T01:35:00;39.80;;;24.87;;
870;SDS011;422;51.280;7.236;2022-12-16T01:37:27;36.57;;;22.97;;
870;SDS011;422;51.280;7.236;2022-12-16T01:39:54;33.80;;;21.87;;
870;SDS011;422;51.280;7.236;2022-12-16T01:42:22;32.23;;;22.50;;
870;SDS011;422;51.280;7.236;2022-12-16T01:44:54;35.00;;;22.10;;
870;SDS011;422;51.280;7.236;2022-12-16T01:47:21;37.83;;;23.50;;
870;SDS011;422;51.280;7.236;2022-12-16T01:49:53;36.30;;;23.30;;
870;SDS011;422;51.280;7.236;2022-12-16T01:52:25;38.03;;;22.90;;
870;SDS011;422;51.280;7.236;2022-12-16T01:54:55;32.60;;;20.93;;
870;SDS011;422;51.280;7.236;2022-12-16T01:57:27;37.03;;;21.50;;
870;SDS011;422;51.280;7.236;2022-12-16T02:00:02;35.07;;;21.10;;
870;SDS011;422;51.280;7.236;2022-12-16T02:02:31;33.50;;;21.10;;
870;SDS011;422;51.280;7.236;2022-12-16T02:04:59;36.73;;;21.60;;
870;SDS011;422;51.280;7.236;2022-12-16T02:07:47;35.00;;;21.50;;
870;SDS011;422;51.280;7.236;2022-12-16T02:10:25;39.77;;;22.37;;
870;SDS011;422;51.280;7.236;2022-12-16T02:13:02;37.13;;;22.37;;
870;SDS011;422;51.280;7.236;2022-12-16T02:15:38;34.93;;;21.43;;
870;SDS011;422;51.280;7.236;2022-12-16T02:18:12;38.17;;;22.80;;
870;SDS011;422;51.280;7.236;2022-12-16T02:21:01;32.13;;;21.30;;
870;SDS011;422;51.280;7.236;2022-12-16T02:23:45;38.00;;;22.83;;
870;SDS011;422;51.280;7.236;2022-12-16T02:29:56;35.23;;;19.90;;
870;SDS011;422;51.280;7.236;2022-12-16T02:32:41;33.57;;;21.00;;
870;SDS011;422;51.280;7.236;2022-12-16T02:35:19;33.00;;;21.30;;
870;SDS011;422;51.280;7.236;2022-12-16T02:37:55;35.40;;;20.77;;
870;SDS011;422;51.280;7.236;2022-12-16T02:40:35;32.87;;;21.90;;
870;SDS011;422;51.280;7.236;2022-12-16T02:43:07;39.07;;;20.23;;
870;SDS011;422;51.280;7.236;2022-12-16T02:45:40;32.30;;;18.80;;
870;SDS011;422;51.280;7.236;2022-12-16T02:48:10;31.43;;;20.53;;
870;SDS011;422;51.280;7.236;2022-12-16T02:50:38;34.63;;;21.60;;
870;SDS011;422;51.280;7.236;2022-12-16T02:53:09;30.83;;;20.43;;
870;SDS011;422;51.280;7.236;2022-12-16T02:55:40;32.10;;;21.47;;
870;SDS011;422;51.280;7.236;2022-12-16T02:58:19;40.17;;;21.97;;
870;SDS011;422;51.280;7.236;2022-12-16T03:00:55;33.70;;;21.20;;
870;SDS011;422;51.280;7.236;2022-12-16T03:03:31;29.60;;;19.47;;
870;SDS011;422;51.280;7.236;2022-12-16T03:06:05;25.87;;;17.67;;
870;SDS011;422;51.280;7.236;2022-12-16T03:08:36;28.57;;;19.83;;
870;SDS011;422;51.280;7.236;2022-12-16T03:11:07;32.90;;;21.40;;
870;SDS011;422;51.280;7.236;2022-12-16T03:13:36;35.40;;;20.93;;
870;SDS011;422;51.280;7.236;2022-12-16T03:16:07;30.20;;;19.63;;
870;SDS011;422;51.280;7.236;2022-12-16T03:18:39;34.20;;;20.90;;
870;SDS011;422;51.280;7.236;2022-12-16T03:21:09;34.17;;;19.83;;
870;SDS011;422;51.280;7.236;2022-12-16T03:23:45;34.07;;;22.00;;
870;SDS011;422;51.280;7.236;2022-12-16T03:26:18;30.60;;;20.43;;
870;SDS011;422;51.280;7.236;2022-12-16T03:28:51;30.53;;;18.80;;
870;SDS011;422;51.280;7.236;2022-12-16T03:31:24;33.10;;;20.53;;
870;SDS011;422;51.280;7.236;2022-12-16T03:33:59;28.80;;;18.83;;
870;SDS011;422;51.280;7.236;2022-12-16T03:36:33;32.80;;;20.57;;
870;SDS011;422;51.280;7.236;2022-12-16T03:39:02;31.70;;;20.30;;
870;SDS011;422;51.280;7.236;2022-12-16T03:41:31;30.80;;;21.03;;
870;SDS011;422;51.280;7.236;2022-12-16T03:44:00;33.43;;;20.23;;
870;SDS011;422;51.280;7.236;2022-12-16T03:46:27;33.53;;;20.07;;
870;SDS011;422;51.280;7.236;2022-12-16T03:48:55;34.07;;;21.07;;
870;SDS011;422;51.280;7.236;2022-12-16T03:51:23;31.83;;;19.03;;
870;SDS011;422;51.280;7.236;2022-12-16T03:53:50;28.10;;;19.97;;
870;SDS011;422;51.280;7.236;2022-12-16T03:56:18;35.40;;;21.27;;
870;SDS011;422;51.280;7.236;2022-12-16T03:58:45;33.40;;;20.60;;
870;SDS011;422;51.280;7.236;2022-12-16T04:01:12;35.30;;;21.00;;
870;SDS011;422;51.280;7.236;2022-12-16T04:03:40;33.80;;;19.83;;
870;SDS011;422;51.280;7.236;2022-12-16T04:06:07;36.63;;;21.90;;
870;SDS011;422;51.280;7.236;2022-12-16T04:08:36;34.07;;;20.57;;
870;SDS011;422;51.280;7.236;2022-12-16T04:11:03;36.33;;;21.30;;
870;SDS011;422;51.280;7.236;2022-12-16T04:13:48;37.10;;;23.17;;
870;SDS011;422;51.280;7.236;2022-12-16T04:16:32;30.60;;;19.33;;
870;SDS011;422;51.280;7.236;2022-12-16T04:19:19;27.87;;;17.80;;
870;SDS011;422;51.280;7.236;2022-12-16T04:22:10;33.80;;;20.27;;
870;SDS011;422;51.280;7.236;2022-12-16T04:24:59;32.80;;;20.30;;
870;SDS011;422;51.280;7.236;2022-12-16T04:27:31;34.93;;;23.40;;
870;SDS011;422;51.280;7.236;2022-12-16T04:29:58;33.67;;;20.80;;
870;SDS011;422;51.280;7.236;2022-12-16T04:32:42;38.17;;;24.50;;
870;SDS011;422;51.280;7.236;2022-12-16T04:35:27;35.43;;;21.80;;
870;SDS011;422;51.280;7.236;2022-12-16T04:38:11;35.53;;;21.20;;
870;SDS011;422;51.280;7.236;2022-12-16T04:40:57;32.50;;;22.33;;
870;SDS011;422;51.280;7.236;2022-12-16T04:43:42;34.10;;;20.33;;
870;SDS011;422;51.280;7.236;2022-12-16T04:46:26;30.20;;;19.70;;
870;SDS011;422;51.280;7.236;2022-12-16T04:49:11;35.73;;;21.77;;
870;SDS011;422;51.280;7.236;2022-12-16T04:51:56;28.87;;;19.33;;
870;SDS011;422;51.280;7.236;2022-12-16T04:54:40;36.27;;;21.63;;
870;SDS011;422;51.280;7.236;2022-12-16T04:57:26;36.13;;;19.60;;
870;SDS011;422;51.280;7.236;2022-12-16T05:00:11;35.43;;;20.17;;
870;SDS011;422;51.280;7.236;2022-12-16T05:02:56;37.80;;;23.27;;
870;SDS011;422;51.280;7.236;2022-12-16T05:05:40;39.27;;;24.63;;
870;SDS011;422;51.280;7.236;2022-12-16T05:08:25;36.83;;;23.63;;
870;SDS011;422;51.280;7.236;2022-12-16T05:11:10;40.90;;;23.27;;
870;SDS011;422;51.280;7.236;2022-12-16T05:13:56;33.83;;;22.30;;
870;SDS011;422;51.280;7.236;2022-12-16T05:16:40;33.63;;;20.30;;
870;SDS011;422;51.280;7.236;2022-12-16T05:19:25;35.47;;;20.93;;
870;SDS011;422;51.280;7.236;2022-12-16T05:22:09;33.63;;;20.00;;
870;SDS011;422;51.280;7.236;2022-12-16T05:24:54;30.90;;;20.17;;
870;SDS011;422;51.280;7.236;2022-12-16T05:27:38;34.67;;;22.40;;
870;SDS011;422;51.280;7.236;2022-12-16T05:30:25;33.97;;;21.27;;
870;SDS011;422;51.280;7.236;2022-12-16T05:33:10;41.27;;;25.17;;
870;SDS011;422;51.280;7.236;2022-12-16T05:35:54;33.67;;;20.67;;
870;SDS011;422;51.280;7.236;2022-12-16T05:38:39;29.77;;;18.67;;
870;SDS011;422;51.280;7.236;2022-12-16T05:41:23;31.70;;;17.87;;
870;SDS011;422;51.280;7.236;2022-12-16T05:44:08;27.97;;;17.90;;
870;SDS011;422;51.280;7.236;2022-12-16T05:46:53;33.30;;;19.47;;
870;SDS011;422;51.280;7.236;2022-12-16T05:49:38;27.43;;;17.10;;
870;SDS011;422;51.280;7.236;2022-12-16T05:52:23;28.10;;;19.43;;
870;SDS011;422;51.280;7.236;2022-12-16T05:55:07;32.50;;;20.27;;
870;SDS011;422;51.280;7.236;2022-12-16T05:57:52;28.27;;;18.07;;
870;SDS011;422;51.280;7.236;2022-12-16T06:00:36;31.37;;;18.37;;
870;SDS011;422;51.280;7.236;2022-12-16T06:03:22;38.80;;;19.53;;
870;SDS011;422;51.280;7.236;2022-12-16T06:06:07;33.23;;;19.83;;
870;SDS011;422;51.280;7.236;2022-12-16T06:08:52;31.43;;;18.53;;
870;SDS011;422;51.280;7.236;2022-12-16T06:11:36;33.30;;;18.30;;
870;SDS011;422;51.280;7.236;2022-12-16T06:14:20;32.80;;;18.17;;
870;SDS011;422;51.280;7.236;2022-12-16T06:17:05;35.27;;;18.90;;
870;SDS011;422;51.280;7.236;2022-12-16T06:19:51;30.33;;;19.10;;
870;SDS011;422;51.280;7.236;2022-12-16T06:22:35;33.97;;;20.40;;
870;SDS011;422;51.280;7.236;2022-12-16T06:25:20;28.73;;;17.77;;
870;SDS011;422;51.280;7.236;2022-12-16T06:28:04;30.27;;;17.83;;
870;SDS011;422;51.280;7.236;2022-12-16T06:30:49;35.03;;;19.17;;
870;SDS011;422;51.280;7.236;2022-12-16T06:33:34;27.67;;;16.93;;
870;SDS011;422;51.280;7.236;2022-12-16T06:36:19;22.53;;;14.87;;
870;SDS011;422;51.280;7.236;2022-12-16T06:39:04;20.67;;;13.40;;
870;SDS011;422;51.280;7.236;2022-12-16T06:41:49;23.63;;;14.37;;
870;SDS011;422;51.280;7.236;2022-12-16T06:44:33;20.50;;;13.30;;
870;SDS011;422;51.280;7.236;2022-12-16T06:47:18;23.57;;;13.57;;
870;SDS011;422;51.280;7.236;2022-12-16T06:50:02;22.80;;;13.07;;
870;SDS011;422;51.280;7.236;2022-12-16T06:52:48;26.00;;;15.23;;
870;SDS011;422;51.280;7.236;2022-12-16T06:55:32;22.77;;;14.03;;
870;SDS011;422;51.280;7.236;2022-12-16T06:58:17;24.97;;;13.63;;
870;SDS011;422;51.280;7.236;2022-12-16T07:01:02;20.77;;;13.53;;
870;SDS011;422;51.280;7.236;2022-12-16T07:03:48;24.77;;;14.57;;
870;SDS011;422;51.280;7.236;2022-12-16T07:16:41;23.20;;;14.90;;
870;SDS011;422;51.280;7.236;2022-12-16T07:19:26;31.23;;;17.20;;
870;SDS011;422;51.280;7.236;2022-12-16T07:22:10;30.80;;;18.50;;
870;SDS011;422;51.280;7.236;2022-12-16T07:24:55;26.17;;;16.90;;
870;SDS011;422;51.280;7.236;2022-12-16T07:27:39;29.87;;;18.40;;
870;SDS011;422;51.280;7.236;2022-12-16T07:30:28;29.50;;;17.77;;
870;SDS011;422;51.280;7.236;2022-12-16T07:33:14;34.63;;;18.93;;
870;SDS011;422;51.280;7.236;2022-12-16T07:35:59;25.67;;;16.20;;
870;SDS011;422;51.280;7.236;2022-12-16T07:38:43;37.93;;;18.70;;
870;SDS011;422;51.280;7.236;2022-12-16T07:41:28;27.20;;;16.57;;
870;SDS011;422;51.280;7.236;2022-12-16T07:44:18;35.33;;;18.10;;
870;SDS011;422;51.280;7.236;2022-12-16T07:47:02;58.53;;;33.70;;
870;SDS011;422;51.280;7.236;2022-12-16T07:49:57;39.13;;;21.33;;
870;SDS011;422;51.280;7.236;2022-12-16T07:52:41;41.40;;;25.90;;
870;SDS011;422;51.280;7.236;2022-12-16T07:55:26;34.00;;;23.93;;
870;SDS011;422;51.280;7.236;2022-12-16T07:58:10;35.07;;;24.77;;
870;SDS011;422;51.280;7.236;2022-12-16T08:00:55;38.00;;;26.30;;
870;SDS011;422;51.280;7.236;2022-12-16T08:03:39;78.20;;;46.27;;
870;SDS011;422;51.280;7.236;2022-12-16T08:06:25;53.77;;;34.30;;
870;SDS011;422;51.280;7.236;2022-12-16T08:09:10;43.80;;;28.53;;
870;SDS011;422;51.280;7.236;2022-12-16T08:11:54;38.43;;;21.17;;
870;SDS011;422;51.280;7.236;2022-12-16T08:14:38;37.40;;;22.67;;
870;SDS011;422;51.280;7.236;2022-12-16T08:17:23;33.23;;;21.23;;
870;SDS011;422;51.280;7.236;2022-12-16T08:20:08;35.37;;;20.83;;
870;SDS011;422;51.280;7.236;2022-12-16T08:22:54;37.20;;;21.17;;
870;SDS011;422;51.280;7.236;2022-12-16T08:25:39;32.20;;;19.40;;
870;SDS011;422;51.280;7.236;2022-12-16T08:28:23;34.53;;;20.70;;
870;SDS011;422;51.280;7.236;2022-12-16T08:31:08;35.23;;;21.60;;
870;SDS011;422;51.280;7.236;2022-12-16T08:33:52;37.83;;;19.07;;
870;SDS011;422;51.280;7.236;2022-12-16T08:36:37;26.30;;;17.87;;
870;SDS011;422;51.280;7.236;2022-12-16T08:39:23;31.10;;;18.47;;
870;SDS011;422;51.280;7.236;2022-12-16T08:42:07;28.73;;;20.17;;
870;SDS011;422;51.280;7.236;2022-12-16T08:44:51;35.57;;;20.50;;
870;SDS011;422;51.280;7.236;2022-12-16T08:47:36;43.20;;;22.17;;
870;SDS011;422;51.280;7.236;2022-12-16T08:50:20;35.30;;;21.20;;
870;SDS011;422;51.280;7.236;2022-12-16T08:53:05;41.80;;;24.87;;
870;SDS011;422;51.280;7.236;2022-12-16T08:55:51;44.03;;;23.80;;
870;SDS011;422;51.280;7.236;2022-12-16T08:58:36;33.77;;;23.40;;
870;SDS011;422;51.280;7.236;2022-12-16T09:01:20;38.60;;;23.80;;
870;SDS011;422;51.280;7.236;2022-12-16T09:04:16;37.57;;;23.60;;
870;SDS011;422;51.280;7.236;2022-12-16T09:07:01;39.73;;;21.80;;
870;SDS011;422;51.280;7.236;2022-12-16T09:09:46;44.37;;;24.70;;
870;SDS011;422;51.280;7.236;2022-12-16T09:12:31;32.77;;;22.87;;
870;SDS011;422;51.280;7.236;2022-12-16T09:15:16;35.00;;;22.47;;
870;SDS011;422;51.280;7.236;2022-12-16T09:18:01;41.30;;;21.47;;
870;SDS011;422;51.280;7.236;2022-12-16T09:20:45;30.40;;;20.53;;
870;SDS011;422;51.280;7.236;2022-12-16T09:23:30;39.40;;;22.67;;
870;SDS011;422;51.280;7.236;2022-12-16T09:26:14;29.70;;;19.00;;
870;SDS011;422;51.280;7.236;2022-12-16T09:29:00;33.67;;;20.30;;
870;SDS011;422;51.280;7.236;2022-12-16T09:31:45;32.93;;;18.53;;
870;SDS011;422;51.280;7.236;2022-12-16T09:34:30;31.27;;;17.53;;
870;SDS011;422;51.280;7.236;2022-12-16T09:37:14;27.60;;;19.00;;
870;SDS011;422;51.280;7.236;2022-12-16T09:39:59;31.10;;;19.07;;
870;SDS011;422;51.280;7.236;2022-12-16T09:42:46;24.33;;;15.80;;
870;SDS011;422;51.280;7.236;2022-12-16T09:45:36;24.97;;;15.67;;
870;SDS011;422;51.280;7.236;2022-12-16T09:48:30;22.53;;;14.30;;
870;SDS011;422;51.280;7.236;2022-12-16T09:51:22;26.33;;;16.07;;
870;SDS011;422;51.280;7.236;2022-12-16T09:54:08;23.60;;;15.93;;
870;SDS011;422;51.280;7.236;2022-12-16T09:56:55;23.13;;;15.30;;
870;SDS011;422;51.280;7.236;2022-12-16T09:59:42;27.83;;;17.50;;
870;SDS011;422;51.280;7.236;2022-12-16T10:02:36;26.17;;;17.37;;
870;SDS011;422;51.280;7.236;2022-12-16T10:05:23;26.00;;;17.80;;
870;SDS011;422;51.280;7.236;2022-12-16T10:08:20;25.00;;;16.87;;
870;SDS011;422;51.280;7.236;2022-12-16T10:11:13;25.03;;;17.37;;
870;SDS011;422;51.280;7.236;2022-12-16T10:14:03;29.83;;;18.00;;
870;SDS011;422;51.280;7.236;2022-12-16T10:16:54;30.47;;;19.33;;
870;SDS011;422;51.280;7.236;2022-12-16T10:19:49;27.47;;;18.60;;
870;SDS011;422;51.280;7.236;2022-12-16T10:22:43;30.10;;;18.77;;
870;SDS011;422;51.280;7.236;2022-12-16T10:25:37;28.47;;;18.50;;
870;SDS011;422;51.280;7.236;2022-12-16T10:28:34;27.30;;;18.17;;
870;SDS011;422;51.280;7.236;2022-12-16T10:31:27;27.00;;;17.47;;
870;SDS011;422;51.280;7.236;2022-12-16T10:34:13;26.00;;;17.57;;
870;SDS011;422;51.280;7.236;2022-12-16T10:37:02;42.40;;;23.47;;
870;SDS011;422;51.280;7.236;2022-12-16T10:39:43;32.17;;;17.33;;
870;SDS011;422;51.280;7.236;2022-12-16T10:42:34;27.40;;;17.53;;
870;SDS011;422;51.280;7.236;2022-12-16T10:45:23;23.80;;;16.70;;
870;SDS011;422;51.280;7.236;2022-12-16T10:48:11;23.60;;;16.47;;
870;SDS011;422;51.280;7.236;2022-12-16T10:50:57;25.57;;;17.77;;
870;SDS011;422;51.280;7.236;2022-12-16T10:53:45;27.43;;;16.80;;
870;SDS011;422;51.280;7.236;2022-12-16T10:56:36;20.93;;;15.93;;
870;SDS011;422;51.280;7.236;2022-12-16T10:59:33;19.60;;;15.40;;
870;SDS011;422;51.280;7.236;2022-12-16T11:02:19;18.50;;;14.37;;
870;SDS011;422;51.280;7.236;2022-12-16T11:05:20;19.90;;;14.80;;
870;SDS011;422;51.280;7.236;2022-12-16T11:08:21;21.47;;;15.00;;
870;SDS011;422;51.280;7.236;2022-12-16T11:11:13;21.53;;;15.43;;
870;SDS011;422;51.280;7.236;2022-12-16T11:14:14;20.57;;;14.83;;
870;SDS011;422;51.280;7.236;2022-12-16T11:17:10;21.77;;;15.50;;
870;SDS011;422;51.280;7.236;2022-12-16T11:20:14;24.70;;;15.37;;
870;SDS011;422;51.280;7.236;2022-12-16T11:23:14;23.53;;;17.30;;
870;SDS011;422;51.280;7.236;2022-12-16T11:26:04;28.00;;;16.70;;
870;SDS011;422;51.280;7.236;2022-12-16T11:29:05;21.67;;;17.47;;
870;SDS011;422;51.280;7.236;2022-12-16T11:31:58;24.93;;;16.63;;
870;SDS011;422;51.280;7.236;2022-12-16T11:34:46;28.13;;;17.37;;
870;SDS011;422;51.280;7.236;2022-12-16T11:37:45;23.80;;;17.37;;
870;SDS011;422;51.280;7.236;2022-12-16T11:40:32;25.53;;;17.37;;
870;SDS011;422;51.280;7.236;2022-12-16T11:43:17;22.67;;;16.07;;
870;SDS011;422;51.280;7.236;2022-12-16T11:46:21;20.67;;;15.20;;
870;SDS011;422;51.280;7.236;2022-12-16T11:49:12;20.63;;;14.40;;
870;SDS011;422;51.280;7.236;2022-12-16T11:52:02;18.53;;;14.07;;
870;SDS011;422;51.280;7.236;2022-12-16T11:54:50;24.10;;;15.93;;
870;SDS011;422;51.280;7.236;2022-12-16T11:57:42;22.50;;;16.20;;
870;SDS011;422;51.280;7.236;2022-12-16T12:00:31;18.77;;;12.70;;
870;SDS011;422;51.280;7.236;2022-12-16T12:03:21;16.10;;;12.13;;
870;SDS011;422;51.280;7.236;2022-12-16T12:06:09;14.57;;;10.97;;
870;SDS011;422;51.280;7.236;2022-12-16T12:09:11;17.83;;;11.23;;
870;SDS011;422;51.280;7.236;2022-12-16T12:12:11;14.20;;;8.70;;
870;SDS011;422;51.280;7.236;2022-12-16T12:15:05;6.10;;;4.60;;
870;SDS011;422;51.280;7.236;2022-12-16T12:17:59;7.00;;;4.27;;
870;SDS011;422;51.280;7.236;2022-12-16T12:20:53;8.23;;;5.13;;
870;SDS011;422;51.280;7.236;2022-12-16T12:23:45;7.20;;;4.20;;
870;SDS011;422;51.280;7.236;2022-12-16T12:26:36;5.60;;;3.80;;
870;SDS011;422;51.280;7.236;2022-12-16T12:29:27;7.00;;;4.40;;
870;SDS011;422;51.280;7.236;2022-12-16T12:32:25;7.40;;;4.50;;
870;SDS011;422;51.280;7.236;2022-12-16T12:35:23;10.40;;;4.20;;
870;SDS011;422;51.280;7.236;2022-12-16T12:38:33;8.03;;;4.30;;
870;SDS011;422;51.280;7.236;2022-12-16T12:41:26;6.13;;;3.97;;
870;SDS011;422;51.280;7.236;2022-12-16T12:44:15;4.97;;;3.90;;
870;SDS011;422;51.280;7.236;2022-12-16T12:47:09;6.77;;;3.70;;
870;SDS011;422;51.280;7.236;2022-12-16T12:49:56;7.20;;;4.20;;
870;SDS011;422;51.280;7.236;2022-12-16T12:52:55;8.03;;;3.90;;
870;SDS011;422;51.280;7.236;2022-12-16T12:55:56;5.43;;;3.53;;
870;SDS011;422;51.280;7.236;2022-12-16T12:58:50;8.10;;;3.63;;
870;SDS011;422;51.280;7.236;2022-12-16T13:01:38;7.23;;;4.37;;
870;SDS011;422;51.280;7.236;2022-12-16T13:04:25;7.60;;;4.30;;
870;SDS011;422;51.280;7.236;2022-12-16T13:07:11;4.90;;;3.57;;
870;SDS011;422;51.280;7.236;2022-12-16T13:10:13;5.90;;;3.50;;
870;SDS011;422;51.280;7.236;2022-12-16T13:13:27;11.10;;;4.20;;
870;SDS011;422;51.280;7.236;2022-12-16T13:19:40;7.20;;;3.40;;
870;SDS011;422;51.280;7.236;2022-12-16T13:22:35;4.63;;;3.17;;
870;SDS011;422;51.280;7.236;2022-12-16T13:25:35;7.27;;;3.17;;
870;SDS011;422;51.280;7.236;2022-12-16T13:28:24;13.20;;;3.33;;
870;SDS011;422;51.280;7.236;2022-12-16T13:31:11;5.77;;;3.57;;
870;SDS011;422;51.280;7.236;2022-12-16T13:33:59;8.07;;;3.47;;
870;SDS011;422;51.280;7.236;2022-12-16T13:36:52;4.83;;;3.20;;
870;SDS011;422;51.280;7.236;2022-12-16T13:39:39;11.20;;;4.30;;
870;SDS011;422;51.280;7.236;2022-12-16T13:45:36;7.83;;;3.60;;
870;SDS011;422;51.280;7.236;2022-12-16T13:48:27;6.40;;;3.60;;
870;SDS011;422;51.280;7.236;2022-12-16T13:54:51;6.20;;;3.43;;
870;SDS011;422;51.280;7.236;2022-12-16T13:57:44;7.00;;;4.70;;
870;SDS011;422;51.280;7.236;2022-12-16T14:00:35;9.13;;;5.30;;
870;SDS011;422;51.280;7.236;2022-12-16T14:03:26;8.50;;;3.93;;
870;SDS011;422;51.280;7.236;2022-12-16T14:06:22;7.20;;;3.80;;
870;SDS011;422;51.280;7.236;2022-12-16T14:09:13;7.50;;;4.27;;
870;SDS011;422;51.280;7.236;2022-12-16T14:12:10;9.17;;;4.37;;
870;SDS011;422;51.280;7.236;2022-12-16T14:15:03;8.07;;;4.53;;
870;SDS011;422;51.280;7.236;2022-12-16T14:17:56;10.17;;;5.47;;
870;SDS011;422;51.280;7.236;2022-12-16T14:20:49;10.30;;;5.07;;
870;SDS011;422;51.280;7.236;2022-12-16T14:23:42;9.63;;;5.43;;
870;SDS011;422;51.280;7.236;2022-12-16T14:26:30;7.97;;;5.37;;
870;SDS011;422;51.280;7.236;2022-12-16T14:29:19;11.27;;;5.37;;
870;SDS011;422;51.280;7.236;2022-12-16T14:32:17;8.50;;;5.57;;
870;SDS011;422;51.280;7.236;2022-12-16T14:35:08;10.70;;;7.10;;
870;SDS011;422;51.280;7.236;2022-12-16T14:37:56;7.40;;;5.83;;
870;SDS011;422;51.280;7.236;2022-12-16T14:40:41;11.37;;;5.90;;
870;SDS011;422;51.280;7.236;2022-12-16T14:43:34;11.40;;;6.30;;
870;SDS011;422;51.280;7.236;2022-12-16T14:46:23;14.37;;;7.00;;
870;SDS011;422;51.280;7.236;2022-12-16T14:49:16;11.77;;;7.00;;
870;SDS011;422;51.280;7.236;2022-12-16T14:52:11;14.47;;;7.80;;
870;SDS011;422;51.280;7.236;2022-12-16T14:54:59;17.83;;;7.20;;
870;SDS011;422;51.280;7.236;2022-12-16T14:58:00;10.67;;;7.90;;
870;SDS011;422;51.280;7.236;2022-12-16T15:00:48;14.10;;;8.70;;
870;SDS011;422;51.280;7.236;2022-12-16T15:03:34;12.93;;;7.37;;
870;SDS011;422;51.280;7.236;2022-12-16T15:06:23;10.53;;;6.93;;
870;SDS011;422;51.280;7.236;2022-12-16T15:09:13;9.17;;;6.03;;
870;SDS011;422;51.280;7.236;2022-12-16T15:12:05;8.90;;;6.50;;
870;SDS011;422;51.280;7.236;2022-12-16T15:14:51;13.80;;;8.60;;
870;SDS011;422;51.280;7.236;2022-12-16T15:17:40;13.50;;;8.70;;
870;SDS011;422;51.280;7.236;2022-12-16T15:20:29;14.67;;;8.90;;
870;SDS011;422;51.280;7.236;2022-12-16T15:23:20;13.73;;;9.40;;
870;SDS011;422;51.280;7.236;2022-12-16T15:26:09;11.13;;;8.43;;
870;SDS011;422;51.280;7.236;2022-12-16T15:28:59;15.83;;;8.03;;
870;SDS011;422;51.280;7.236;2022-12-16T15:31:44;15.57;;;8.70;;
870;SDS011;422;51.280;7.236;2022-12-16T15:34:30;13.83;;;7.83;;
870;SDS011;422;51.280;7.236;2022-12-16T15:37:30;14.23;;;9.90;;
870;SDS011;422;51.280;7.236;2022-12-16T15:40:21;22.30;;;13.10;;
870;SDS011;422;51.280;7.236;2022-12-16T15:43:22;24.33;;;13.30;;
870;SDS011;422;51.280;7.236;2022-12-16T15:46:16;20.73;;;12.60;;
870;SDS011;422;51.280;7.236;2022-12-16T15:49:03;17.00;;;11.90;;
870;SDS011;422;51.280;7.236;2022-12-16T15:51:48;23.57;;;16.23;;
870;SDS011;422;51.280;7.236;2022-12-16T15:54:47;19.10;;;13.30;;
870;SDS011;422;51.280;7.236;2022-12-16T15:57:34;19.30;;;13.60;;
870;SDS011;422;51.280;7.236;2022-12-16T16:00:22;18.80;;;13.23;;
870;SDS011;422;51.280;7.236;2022-12-16T16:03:19;20.67;;;13.83;;
870;SDS011;422;51.280;7.236;2022-12-16T16:06:13;17.67;;;12.67;;
870;SDS011;422;51.280;7.236;2022-12-16T16:09:12;19.57;;;12.87;;
870;SDS011;422;51.280;7.236;2022-12-16T16:11:57;21.30;;;14.63;;
870;SDS011;422;51.280;7.236;2022-12-16T16:14:41;23.60;;;18.10;;
870;SDS011;422;51.280;7.236;2022-12-16T16:17:27;28.70;;;19.37;;
870;SDS011;422;51.280;7.236;2022-12-16T16:20:12;28.83;;;18.50;;
870;SDS011;422;51.280;7.236;2022-12-16T16:22:59;25.10;;;17.37;;
870;SDS011;422;51.280;7.236;2022-12-16T16:25:44;32.73;;;20.77;;
870;SDS011;422;51.280;7.236;2022-12-16T16:28:29;27.13;;;19.03;;
870;SDS011;422;51.280;7.236;2022-12-16T16:31:13;32.40;;;19.77;;
870;SDS011;422;51.280;7.236;2022-12-16T16:34:14;26.37;;;19.27;;
870;SDS011;422;51.280;7.236;2022-12-16T16:36:58;33.90;;;19.80;;
870;SDS011;422;51.280;7.236;2022-12-16T16:39:43;28.87;;;19.70;;
870;SDS011;422;51.280;7.236;2022-12-16T16:42:28;33.07;;;20.57;;
870;SDS011;422;51.280;7.236;2022-12-16T16:45:13;35.37;;;22.60;;
870;SDS011;422;51.280;7.236;2022-12-16T16:48:02;37.70;;;25.90;;
870;SDS011;422;51.280;7.236;2022-12-16T16:50:50;46.27;;;28.80;;
870;SDS011;422;51.280;7.236;2022-12-16T16:53:56;48.27;;;29.70;;
870;SDS011;422;51.280;7.236;2022-12-16T16:56:41;47.10;;;31.20;;
870;SDS011;422;51.280;7.236;2022-12-16T16:59:25;55.97;;;38.30;;
870;SDS011;422;51.280;7.236;2022-12-16T17:02:13;55.20;;;35.50;;
870;SDS011;422;51.280;7.236;2022-12-16T17:05:00;57.83;;;39.40;;
870;SDS011;422;51.280;7.236;2022-12-16T17:07:46;66.47;;;40.67;;
870;SDS011;422;51.280;7.236;2022-12-16T17:10:30;59.73;;;40.40;;
870;SDS011;422;51.280;7.236;2022-12-16T17:13:15;58.80;;;39.30;;
870;SDS011;422;51.280;7.236;2022-12-16T17:15:59;61.53;;;39.00;;
870;SDS011;422;51.280;7.236;2022-12-16T17:18:43;62.57;;;38.80;;
870;SDS011;422;51.280;7.236;2022-12-16T17:21:28;65.73;;;39.50;;
870;SDS011;422;51.280;7.236;2022-12-16T17:24:13;63.93;;;41.47;;
870;SDS011;422;51.280;7.236;2022-12-16T17:26:57;61.37;;;38.00;;